Time;durP1;ratioP1;P1;durP2;ratioP2;P2;SDS_P1;SDS_P2;PMS_P1;PMS_P2;Temp;Humidity;BMP_temperature;BMP_pressure;BME280_temperature;BME280_humidity;BME280_pressure;Samples;Min_cycle;Max_cycle;Signal;HPM_P1;HPM_P2
2021/09/28 00:01:35;;;;;;;9.95;2.05;;;12.80;99.90;;;;;;5091916;28;20026;-86
2021/09/28 00:04:01;;;;;;;12.57;3.10;;;12.80;99.90;;;;;;5072926;28;20426;-86
2021/09/28 00:06:26;;;;;;;5.00;1.42;;;12.70;99.90;;;;;;5076007;28;20024;-86
2021/09/28 00:08:52;;;;;;;7.10;1.75;;;12.70;99.90;;;;;;5090956;28;20529;-86
2021/09/28 00:11:17;;;;;;;7.35;1.58;;;12.80;99.90;;;;;;5059029;28;20506;-86
2021/09/28 00:13:43;;;;;;;8.07;2.17;;;12.70;99.90;;;;;;5057931;28;20040;-86
2021/09/28 00:16:09;;;;;;;7.72;2.40;;;12.80;99.90;;;;;;5060251;28;20024;-87
2021/09/28 00:18:34;;;;;;;9.05;2.00;;;12.80;99.90;;;;;;5072096;28;20461;-86
2021/09/28 00:21:00;;;;;;;11.60;2.25;;;12.80;99.90;;;;;;5060800;28;20023;-86
2021/09/28 00:23:25;;;;;;;6.28;1.73;;;12.70;99.90;;;;;;5089663;28;20023;-86
2021/09/28 00:25:51;;;;;;;9.70;2.00;;;12.70;99.90;;;;;;5076253;28;20162;-87
2021/09/28 00:28:17;;;;;;;7.30;1.77;;;12.70;99.90;;;;;;5078194;28;20031;-86
2021/09/28 00:30:43;;;;;;;10.63;2.15;;;12.60;99.90;;;;;;5089079;28;20071;-87
2021/09/28 00:33:09;;;;;;;8.13;1.98;;;12.40;99.70;;;;;;5058069;28;20059;-86
2021/09/28 00:35:35;;;;;;;6.80;2.08;;;12.50;99.90;;;;;;5091174;28;20530;-83
2021/09/28 00:38:01;;;;;;;7.88;1.90;;;12.50;99.90;;;;;;5055080;28;20327;-86
2021/09/28 00:40:26;;;;;;;6.30;1.80;;;12.50;99.90;;;;;;5060547;28;20041;-86
2021/09/28 00:42:52;;;;;;;8.63;2.20;;;12.50;99.90;;;;;;5089847;28;20622;-86
2021/09/28 00:45:17;;;;;;;6.90;1.80;;;12.50;99.90;;;;;;5079895;28;20027;-86
2021/09/28 00:47:43;;;;;;;11.60;2.50;;;12.40;99.90;;;;;;5088732;28;20042;-86
2021/09/28 00:50:09;;;;;;;5.30;1.55;;;12.40;99.90;;;;;;5071998;28;20050;-86
2021/09/28 00:52:34;;;;;;;10.32;2.50;;;12.40;99.90;;;;;;5059807;28;20404;-85
2021/09/28 00:55:00;;;;;;;6.60;1.67;;;12.40;99.90;;;;;;5063043;28;20030;-86
2021/09/28 00:57:26;;;;;;;8.80;1.92;;;12.40;99.90;;;;;;5071441;28;20046;-86
2021/09/28 00:59:52;;;;;;;7.18;2.20;;;12.40;99.90;;;;;;5072855;28;20502;-86
2021/09/28 01:02:17;;;;;;;6.78;1.67;;;12.20;99.90;;;;;;5072742;28;20027;-85
2021/09/28 01:04:43;;;;;;;7.10;1.38;;;12.30;99.90;;;;;;5087856;28;20506;-86
2021/09/28 01:07:09;;;;;;;7.53;1.65;;;12.30;99.90;;;;;;5075710;28;20543;-86
2021/09/28 01:09:35;;;;;;;9.50;1.52;;;12.30;99.90;;;;;;5057743;28;20190;-83
2021/09/28 01:12:01;;;;;;;6.15;1.90;;;12.40;99.90;;;;;;5055400;28;20050;-86
2021/09/28 01:14:26;;;;;;;9.85;1.80;;;12.30;99.90;;;;;;5060111;28;20028;-85
2021/09/28 01:16:52;;;;;;;6.28;1.60;;;12.40;99.90;;;;;;5056147;28;20487;-86
2021/09/28 01:19:18;;;;;;;6.28;1.50;;;12.30;99.90;;;;;;5056757;28;20122;-86
2021/09/28 01:21:44;;;;;;;6.57;2.10;;;12.20;99.90;;;;;;5071420;28;20464;-86
2021/09/28 01:24:09;;;;;;;5.22;2.03;;;12.20;99.90;;;;;;5073660;28;20091;-86
2021/09/28 01:26:35;;;;;;;5.88;1.42;;;12.20;99.90;;;;;;5057087;28;20083;-85
2021/09/28 01:29:01;;;;;;;12.45;2.15;;;12.20;99.90;;;;;;5076642;28;20031;-85
2021/09/28 01:31:27;;;;;;;7.20;2.28;;;12.10;99.90;;;;;;5074931;28;20111;-86
2021/09/28 01:33:53;;;;;;;7.22;1.92;;;12.10;99.90;;;;;;5055709;28;20123;-86
2021/09/28 01:36:18;;;;;;;9.52;1.92;;;12.00;99.90;;;;;;5072206;28;20114;-85
2021/09/28 01:38:44;;;;;;;9.98;2.00;;;12.10;99.90;;;;;;5070157;28;20036;-85
2021/09/28 01:41:10;;;;;;;11.35;1.83;;;12.00;99.90;;;;;;5089025;28;20027;-86
2021/09/28 01:43:35;;;;;;;5.22;1.23;;;12.10;99.90;;;;;;5068128;28;20036;-87
2021/09/28 01:46:02;;;;;;;4.88;1.63;;;12.20;99.90;;;;;;5056690;28;20035;-83
2021/09/28 01:48:36;;;;;;;6.85;1.77;;;12.30;99.90;;;;;;5065546;28;20507;-86
2021/09/28 01:51:02;;;;;;;4.75;1.48;;;12.20;99.90;;;;;;5065217;28;20488;-86
2021/09/28 01:53:27;;;;;;;5.60;1.65;;;12.10;99.90;;;;;;5076533;28;20031;-85
2021/09/28 01:55:53;;;;;;;7.38;1.45;;;12.10;99.90;;;;;;5058588;28;20040;-85
2021/09/28 01:58:19;;;;;;;9.77;1.65;;;12.10;99.90;;;;;;5058455;28;20020;-84
2021/09/28 02:00:44;;;;;;;7.28;1.70;;;12.10;99.90;;;;;;5072086;28;20046;-86
2021/09/28 02:03:10;;;;;;;6.22;1.42;;;12.10;99.90;;;;;;5071018;28;20027;-86
2021/09/28 02:05:36;;;;;;;5.07;2.00;;;12.00;99.90;;;;;;5088619;28;20101;-86
2021/09/28 02:08:02;;;;;;;10.85;1.65;;;12.00;99.90;;;;;;5072650;28;20023;-86
2021/09/28 02:10:27;;;;;;;9.05;1.73;;;12.00;99.90;;;;;;5071169;28;20054;-86
2021/09/28 02:12:53;;;;;;;4.35;0.95;;;12.10;99.90;;;;;;5071009;28;20047;-86
2021/09/28 02:15:19;;;;;;;8.75;1.70;;;12.00;99.90;;;;;;5055839;28;20438;-86
2021/09/28 02:17:44;;;;;;;9.82;1.50;;;12.10;99.90;;;;;;5067926;28;20035;-86
2021/09/28 02:20:10;;;;;;;6.47;1.60;;;12.00;99.90;;;;;;5054886;28;20445;-85
2021/09/28 02:22:36;;;;;;;5.55;1.75;;;12.00;99.90;;;;;;5068865;28;20398;-85
2021/09/28 02:25:02;;;;;;;7.95;2.17;;;12.00;99.90;;;;;;5054775;28;20498;-85
2021/09/28 02:27:28;;;;;;;8.13;1.52;;;12.00;99.90;;;;;;5056646;28;20039;-86
2021/09/28 02:29:54;;;;;;;7.05;1.73;;;12.00;99.90;;;;;;5070331;28;20034;-85
2021/09/28 02:32:20;;;;;;;5.50;1.60;;;11.90;99.90;;;;;;5085800;28;20024;-86
2021/09/28 02:34:45;;;;;;;4.57;1.30;;;11.90;99.90;;;;;;5070277;28;20066;-80
2021/09/28 02:37:12;;;;;;;9.85;1.58;;;12.00;99.90;;;;;;5054309;28;20399;-80
2021/09/28 02:39:39;;;;;;;11.18;1.88;;;12.00;99.90;;;;;;5066808;28;20036;-80
2021/09/28 02:42:06;;;;;;;6.60;1.70;;;12.00;99.90;;;;;;5052405;28;20082;-80
2021/09/28 02:44:31;;;;;;;10.07;1.80;;;12.00;99.90;;;;;;5056418;28;20036;-80
2021/09/28 02:46:57;;;;;;;16.17;2.10;;;12.00;99.90;;;;;;5069594;28;20038;-81
2021/09/28 02:49:22;;;;;;;10.43;1.58;;;11.80;99.90;;;;;;5071007;28;20024;-82
2021/09/28 02:51:48;;;;;;;7.07;1.98;;;11.90;99.90;;;;;;5067012;28;20115;-81
2021/09/28 02:54:13;;;;;;;6.25;1.42;;;11.90;99.90;;;;;;5053639;28;20051;-81
2021/09/28 02:56:39;;;;;;;8.32;1.63;;;11.90;99.90;;;;;;5046231;28;20111;-82
2021/09/28 02:59:04;;;;;;;11.65;1.90;;;11.90;99.90;;;;;;5053603;28;20028;-81
2021/09/28 03:01:30;;;;;;;8.40;1.65;;;11.90;99.90;;;;;;5059128;28;20036;-82
2021/09/28 03:03:56;;;;;;;7.60;1.50;;;11.80;99.90;;;;;;5063453;28;20028;-81
2021/09/28 03:06:21;;;;;;;8.55;1.65;;;11.80;99.90;;;;;;5051701;28;20027;-81
2021/09/28 03:08:47;;;;;;;10.32;1.60;;;11.90;99.90;;;;;;5084797;28;20070;-82
2021/09/28 03:11:12;;;;;;;2.90;1.33;;;11.80;99.90;;;;;;5053199;28;20032;-81
2021/09/28 03:13:38;;;;;;;6.10;1.20;;;11.80;99.90;;;;;;5057268;28;20075;-80
2021/09/28 03:16:03;;;;;;;11.90;1.60;;;11.80;99.90;;;;;;5052601;28;20024;-82
2021/09/28 03:18:29;;;;;;;10.57;1.58;;;11.80;99.90;;;;;;5056584;28;20146;-81
2021/09/28 03:20:54;;;;;;;8.90;2.20;;;11.70;99.90;;;;;;5055264;28;20028;-81
2021/09/28 03:23:20;;;;;;;10.88;2.13;;;11.80;99.90;;;;;;5071110;28;20035;-81
2021/09/28 03:25:46;;;;;;;4.70;1.30;;;11.80;99.90;;;;;;5086218;28;20031;-81
2021/09/28 03:28:12;;;;;;;8.27;1.50;;;11.80;99.90;;;;;;5055563;28;20080;-81
2021/09/28 03:30:37;;;;;;;10.60;1.45;;;11.80;99.90;;;;;;5053640;28;20047;-80
2021/09/28 03:33:03;;;;;;;7.82;1.73;;;11.80;99.90;;;;;;5052157;28;20038;-80
2021/09/28 03:35:29;;;;;;;4.88;1.35;;;11.70;99.90;;;;;;5089392;28;20051;-80
2021/09/28 03:37:54;;;;;;;6.35;1.65;;;11.70;99.90;;;;;;5072710;28;20061;-81
2021/09/28 03:40:20;;;;;;;11.60;1.67;;;11.80;99.90;;;;;;5073531;28;20038;-81
2021/09/28 03:42:46;;;;;;;4.13;1.52;;;11.70;99.90;;;;;;5071008;28;20367;-81
2021/09/28 03:45:12;;;;;;;10.43;1.70;;;11.70;99.90;;;;;;5087858;28;20035;-81
2021/09/28 03:47:38;;;;;;;7.50;1.55;;;11.70;99.90;;;;;;5059466;28;20556;-81
2021/09/28 03:50:04;;;;;;;11.23;1.92;;;11.80;99.90;;;;;;5056187;28;20023;-82
2021/09/28 03:52:29;;;;;;;8.38;1.50;;;11.70;99.90;;;;;;5072107;28;20062;-81
2021/09/28 03:54:55;;;;;;;9.20;1.95;;;11.70;99.90;;;;;;5072532;28;20491;-81
2021/09/28 03:57:20;;;;;;;7.50;1.75;;;11.60;99.90;;;;;;5057175;28;20144;-80
2021/09/28 03:59:49;;;;;;;6.60;1.20;;;11.70;99.90;;;;;;5069607;28;20038;-81
2021/09/28 04:02:14;;;;;;;10.52;2.05;;;11.80;99.90;;;;;;5071431;28;20114;-80
2021/09/28 04:04:40;;;;;;;8.15;1.73;;;11.60;99.90;;;;;;5070936;28;20123;-82
2021/09/28 04:07:05;;;;;;;12.20;2.42;;;11.60;99.90;;;;;;5055145;28;20434;-80
2021/09/28 04:09:31;;;;;;;13.75;1.80;;;11.60;99.90;;;;;;5061971;28;20036;-80
2021/09/28 04:11:57;;;;;;;7.45;1.73;;;11.60;99.90;;;;;;5070411;28;20049;-80
2021/09/28 04:14:22;;;;;;;4.43;1.40;;;11.60;99.90;;;;;;5068998;28;20031;-80
2021/09/28 04:16:48;;;;;;;5.05;2.33;;;11.60;99.90;;;;;;5075333;28;20024;-81
2021/09/28 04:19:14;;;;;;;17.35;3.28;;;11.60;99.90;;;;;;5058920;28;20059;-80
2021/09/28 04:21:39;;;;;;;11.48;2.05;;;11.60;99.90;;;;;;5089883;28;20032;-80
2021/09/28 04:24:06;;;;;;;10.38;1.90;;;11.60;99.90;;;;;;5073503;28;20046;-80
2021/09/28 04:26:32;;;;;;;7.93;1.73;;;11.50;99.90;;;;;;5055754;28;20024;-80
2021/09/28 04:28:58;;;;;;;7.13;1.50;;;11.50;99.90;;;;;;5086067;28;20085;-80
2021/09/28 04:31:23;;;;;;;9.43;1.80;;;11.50;99.90;;;;;;5070971;28;20024;-80
2021/09/28 04:33:49;;;;;;;7.68;1.67;;;11.50;99.90;;;;;;5070372;28;20062;-80
2021/09/28 04:36:14;;;;;;;6.53;1.83;;;11.50;99.90;;;;;;5072134;28;20073;-80
2021/09/28 04:38:40;;;;;;;6.93;1.63;;;11.40;99.90;;;;;;5058656;28;20077;-81
2021/09/28 04:41:06;;;;;;;7.25;1.40;;;11.40;99.90;;;;;;5086247;28;20034;-81
2021/09/28 04:43:31;;;;;;;13.13;2.35;;;11.40;99.90;;;;;;5055989;28;20028;-81
2021/09/28 04:45:57;;;;;;;14.02;2.33;;;11.40;99.90;;;;;;5064717;28;20493;-81
2021/09/28 04:48:22;;;;;;;9.48;1.80;;;11.40;99.90;;;;;;5065585;28;20367;-81
2021/09/28 04:50:49;;;;;;;15.65;2.45;;;11.40;99.90;;;;;;5068540;28;20565;-82
2021/09/28 04:53:15;;;;;;;7.75;2.13;;;11.40;99.90;;;;;;5058447;28;20027;-82
2021/09/28 04:55:41;;;;;;;12.60;3.78;;;11.30;99.90;;;;;;5070191;28;20031;-81
2021/09/28 04:58:06;;;;;;;8.13;1.80;;;11.30;99.90;;;;;;5052154;28;20024;-81
2021/09/28 05:00:32;;;;;;;5.10;1.40;;;11.30;99.90;;;;;;5068406;28;20039;-81
2021/09/28 05:02:58;;;;;;;8.90;1.83;;;11.20;99.90;;;;;;5067216;28;20047;-81
2021/09/28 05:05:24;;;;;;;6.22;1.90;;;11.20;99.90;;;;;;5063883;28;20047;-81
2021/09/28 05:07:49;;;;;;;8.30;2.08;;;11.20;99.90;;;;;;5051551;28;20036;-81
2021/09/28 05:10:15;;;;;;;9.95;1.70;;;11.20;99.90;;;;;;5061283;28;20110;-80
2021/09/28 05:12:41;;;;;;;11.18;1.63;;;11.30;99.90;;;;;;5069842;28;20040;-83
2021/09/28 05:15:06;;;;;;;8.63;1.65;;;11.20;99.90;;;;;;5053162;28;20024;-81
2021/09/28 05:17:32;;;;;;;7.68;1.70;;;11.30;99.90;;;;;;5087756;28;20063;-82
2021/09/28 05:19:57;;;;;;;6.93;1.88;;;11.30;99.90;;;;;;5051778;28;20032;-82
2021/09/28 05:22:23;;;;;;;6.20;1.60;;;11.30;99.90;;;;;;5070255;28;20059;-81
2021/09/28 05:24:49;;;;;;;8.13;1.45;;;11.30;99.90;;;;;;5070430;28;20035;-82
2021/09/28 05:27:15;;;;;;;10.07;1.83;;;11.30;99.90;;;;;;5054269;28;20042;-81
2021/09/28 05:29:40;;;;;;;8.10;1.58;;;11.40;99.90;;;;;;5084852;28;20040;-80
2021/09/28 05:32:07;;;;;;;4.95;1.80;;;11.20;99.90;;;;;;5062172;28;20066;-81
2021/09/28 05:34:32;;;;;;;8.63;1.80;;;11.20;99.90;;;;;;5085344;28;20052;-80
2021/09/28 05:36:58;;;;;;;8.75;1.50;;;11.20;99.90;;;;;;5053581;28;20032;-80
2021/09/28 05:39:24;;;;;;;8.50;2.17;;;11.30;99.90;;;;;;5071473;28;20421;-81
2021/09/28 05:41:49;;;;;;;9.40;2.05;;;11.40;99.90;;;;;;5085549;28;20077;-81
2021/09/28 05:44:15;;;;;;;7.15;2.25;;;11.30;99.90;;;;;;5058715;28;20047;-82
2021/09/28 05:46:41;;;;;;;13.65;2.22;;;11.30;99.90;;;;;;5047831;28;20361;-81
2021/09/28 05:49:06;;;;;;;6.60;1.83;;;11.30;99.90;;;;;;5054500;28;20035;-81
2021/09/28 05:51:34;;;;;;;9.18;1.80;;;11.20;99.90;;;;;;5068626;28;20387;-81
2021/09/28 05:54:01;;;;;;;3.40;1.42;;;11.30;99.90;;;;;;5050165;28;20073;-81
2021/09/28 05:56:27;;;;;;;9.18;2.22;;;11.20;99.90;;;;;;5054815;28;20030;-81
2021/09/28 05:58:53;;;;;;;7.38;1.80;;;11.30;99.90;;;;;;5070237;28;20031;-81
2021/09/28 06:01:18;;;;;;;10.88;2.10;;;11.30;99.90;;;;;;5072901;28;20391;-81
2021/09/28 06:03:44;;;;;;;12.82;2.55;;;11.30;99.90;;;;;;5068745;28;20126;-82
2021/09/28 06:06:09;;;;;;;7.30;1.50;;;11.20;99.90;;;;;;5071261;28;20031;-81
2021/09/28 06:08:35;;;;;;;8.38;1.77;;;11.20;99.90;;;;;;5059530;28;20285;-82
2021/09/28 06:11:01;;;;;;;7.32;1.92;;;11.20;99.90;;;;;;5058737;28;20023;-80
2021/09/28 06:13:26;;;;;;;6.03;1.38;;;11.40;99.90;;;;;;5087424;28;20032;-81
2021/09/28 06:15:53;;;;;;;7.35;1.65;;;11.30;99.90;;;;;;5066580;28;20042;-81
2021/09/28 06:18:19;;;;;;;13.00;1.85;;;11.30;99.90;;;;;;5052773;28;20141;-80
2021/09/28 06:20:45;;;;;;;5.97;1.50;;;11.20;99.90;;;;;;5052722;28;20563;-81
2021/09/28 06:23:11;;;;;;;5.22;1.83;;;11.30;99.90;;;;;;5056979;28;20027;-81
2021/09/28 06:25:37;;;;;;;5.45;1.63;;;11.40;99.90;;;;;;5070313;28;20114;-81
2021/09/28 06:28:03;;;;;;;15.13;2.40;;;11.40;99.90;;;;;;5057721;28;20551;-81
2021/09/28 06:30:28;;;;;;;8.57;1.60;;;11.40;99.90;;;;;;5053297;28;20578;-81
2021/09/28 06:32:54;;;;;;;6.68;1.70;;;11.40;99.90;;;;;;5066653;28;20399;-81
2021/09/28 06:35:20;;;;;;;6.72;1.73;;;11.40;99.90;;;;;;5072434;28;20038;-81
2021/09/28 06:37:45;;;;;;;9.13;2.30;;;11.40;99.90;;;;;;5069731;28;20069;-80
2021/09/28 06:40:11;;;;;;;16.08;2.45;;;11.50;99.90;;;;;;5071796;28;20448;-81
2021/09/28 06:42:36;;;;;;;6.97;1.60;;;11.40;99.90;;;;;;5059822;28;20085;-81
2021/09/28 06:45:02;;;;;;;11.35;2.13;;;11.40;99.90;;;;;;5053760;28;20156;-81
2021/09/28 06:47:28;;;;;;;8.20;1.55;;;11.40;99.90;;;;;;5053382;28;20036;-81
2021/09/28 06:49:53;;;;;;;10.98;2.47;;;11.40;99.90;;;;;;5065373;28;20032;-82
2021/09/28 06:52:19;;;;;;;4.13;1.30;;;11.60;99.90;;;;;;5069113;28;20051;-82
2021/09/28 06:54:44;;;;;;;11.50;1.92;;;11.60;99.90;;;;;;5051573;28;20062;-81
2021/09/28 06:57:10;;;;;;;9.13;2.20;;;11.70;99.90;;;;;;5068561;28;20146;-81
2021/09/28 06:59:35;;;;;;;7.60;1.52;;;11.70;99.90;;;;;;5064980;28;20416;-82
2021/09/28 07:02:02;;;;;;;6.85;1.50;;;11.90;99.90;;;;;;5073997;28;20550;-80
2021/09/28 07:04:27;;;;;;;12.32;1.85;;;11.90;99.90;;;;;;5061840;28;20509;-81
2021/09/28 07:06:53;;;;;;;6.00;1.63;;;12.00;99.90;;;;;;5071621;28;20047;-81
2021/09/28 07:09:19;;;;;;;7.18;2.28;;;12.10;99.90;;;;;;5054156;28;20020;-81
2021/09/28 07:11:44;;;;;;;5.72;1.60;;;12.20;99.90;;;;;;5069937;28;20613;-81
2021/09/28 07:14:12;;;;;;;8.43;1.50;;;12.30;99.90;;;;;;5058247;28;20191;-81
2021/09/28 07:16:38;;;;;;;6.93;1.45;;;12.30;99.90;;;;;;5055509;28;20150;-80
2021/09/28 07:19:03;;;;;;;7.68;1.65;;;12.40;99.90;;;;;;5057734;28;20444;-80
2021/09/28 07:21:29;;;;;;;5.28;1.38;;;12.40;99.90;;;;;;5056973;28;20028;-81
2021/09/28 07:23:54;;;;;;;12.57;1.33;;;12.60;99.90;;;;;;5070410;28;20545;-80
2021/09/28 07:26:20;;;;;;;10.98;1.98;;;12.60;99.90;;;;;;5051579;28;20042;-80
2021/09/28 07:28:45;;;;;;;8.15;1.50;;;12.50;99.90;;;;;;5069815;28;20031;-81
2021/09/28 07:31:11;;;;;;;7.22;2.17;;;12.80;99.90;;;;;;5073478;28;20027;-80
2021/09/28 07:33:37;;;;;;;12.68;1.40;;;12.90;99.90;;;;;;5067459;28;20036;-80
2021/09/28 07:36:05;;;;;;;9.32;1.73;;;13.00;99.90;;;;;;5069938;28;20035;-80
2021/09/28 07:38:31;;;;;;;9.70;1.55;;;13.10;99.90;;;;;;5069534;28;20479;-81
2021/09/28 07:40:57;;;;;;;7.45;1.55;;;13.40;99.90;;;;;;5061846;28;20122;-81
2021/09/28 07:43:22;;;;;;;5.95;1.10;;;13.30;99.90;;;;;;5084661;28;20039;-81
2021/09/28 07:45:48;;;;;;;5.40;1.30;;;13.50;99.90;;;;;;5054552;28;20130;-81
2021/09/28 07:48:13;;;;;;;6.55;1.58;;;13.80;99.90;;;;;;5059123;28;20090;-80
2021/09/28 07:50:39;;;;;;;8.30;2.13;;;13.80;99.60;;;;;;5067461;28;20039;-80
2021/09/28 07:53:06;;;;;;;9.07;1.67;;;14.00;99.60;;;;;;5087018;28;20024;-80
2021/09/28 07:55:32;;;;;;;5.20;1.45;;;14.00;99.80;;;;;;5086954;28;20030;-81
2021/09/28 07:57:58;;;;;;;9.10;1.40;;;14.00;99.90;;;;;;5085480;28;20086;-81
2021/09/28 08:00:23;;;;;;;6.13;1.48;;;14.20;99.90;;;;;;5071804;28;20055;-81
2021/09/28 08:02:49;;;;;;;8.35;1.30;;;14.10;99.70;;;;;;5071312;28;20483;-80
2021/09/28 08:05:14;;;;;;;6.47;1.95;;;14.10;99.90;;;;;;5053678;28;20469;-82
2021/09/28 08:07:40;;;;;;;5.45;1.33;;;14.30;99.60;;;;;;5068008;28;20038;-81
2021/09/28 08:10:17;;;;;;;8.30;1.48;;;14.40;99.70;;;;;;5069972;28;20111;-80
2021/09/28 08:12:43;;;;;;;5.55;1.27;;;14.60;99.90;;;;;;5070441;28;20501;-81
2021/09/28 08:15:09;;;;;;;4.22;1.05;;;14.50;99.80;;;;;;5054886;28;20032;-80
2021/09/28 08:17:35;;;;;;;6.30;1.20;;;14.50;99.90;;;;;;5065496;28;20450;-81
2021/09/28 08:20:00;;;;;;;9.50;1.30;;;14.70;99.90;;;;;;5072286;28;20043;-80
2021/09/28 08:22:26;;;;;;;9.00;1.33;;;14.60;99.90;;;;;;5086942;28;20360;-80
2021/09/28 08:24:54;;;;;;;6.55;1.90;;;15.00;99.40;;;;;;5057714;28;20046;-81
2021/09/28 08:30:06;;;;;;;3.97;1.08;;;15.50;98.60;;;;;;5090808;28;20054;-80
2021/09/28 08:32:31;;;;;;;4.90;1.42;;;15.50;98.90;;;;;;5069187;28;20433;-81
2021/09/28 08:34:58;;;;;;;12.88;1.75;;;15.70;98.00;;;;;;5071843;28;20101;-80
2021/09/28 08:37:26;;;;;;;8.30;1.63;;;15.60;98.40;;;;;;5066732;28;20063;-81
2021/09/28 08:39:52;;;;;;;10.80;1.58;;;15.60;98.60;;;;;;5072436;28;20387;-82
2021/09/28 08:42:17;;;;;;;9.63;2.03;;;15.50;99.00;;;;;;5054027;28;20023;-81
2021/09/28 08:44:43;;;;;;;10.27;1.23;;;15.60;99.60;;;;;;5057731;28;20036;-80
2021/09/28 08:47:08;;;;;;;9.95;1.33;;;15.80;98.80;;;;;;5055041;28;20455;-82
2021/09/28 08:49:35;;;;;;;4.30;1.15;;;15.80;98.80;;;;;;5056094;28;20043;-81
2021/09/28 08:52:01;;;;;;;6.13;1.30;;;16.10;99.00;;;;;;5060532;28;20059;-80
2021/09/28 08:54:26;;;;;;;6.80;2.13;;;16.20;99.20;;;;;;5072527;28;20027;-81
2021/09/28 08:56:52;;;;;;;8.50;1.55;;;16.40;99.00;;;;;;5048962;28;20479;-80
2021/09/28 08:59:18;;;;;;;7.68;1.35;;;16.30;98.90;;;;;;5064157;28;20500;-81
2021/09/28 09:01:57;;;;;;;9.70;2.47;;;16.40;99.40;;;;;;5088196;28;20027;-81
2021/09/28 09:04:25;;;;;;;3.65;1.05;;;16.40;99.60;;;;;;5071418;28;20027;-81
2021/09/28 09:06:50;;;;;;;5.82;1.10;;;16.60;99.30;;;;;;5051165;28;20559;-81
2021/09/28 09:09:16;;;;;;;7.88;1.48;;;16.80;99.50;;;;;;5052122;28;20015;-81
2021/09/28 09:11:47;;;;;;;10.27;1.75;;;17.10;98.30;;;;;;5068495;28;20024;-80
2021/09/28 09:14:16;;;;;;;6.80;1.40;;;17.20;98.90;;;;;;5059541;28;20449;-81
2021/09/28 09:16:43;;;;;;;9.07;1.40;;;17.60;97.60;;;;;;5070105;28;20432;-81
2021/09/28 09:19:16;;;;;;;9.13;2.20;;;17.50;98.70;;;;;;5059491;28;20024;-81
2021/09/28 09:22:01;;;;;;;10.65;1.67;;;17.40;97.90;;;;;;5054639;28;20028;-81
2021/09/28 09:24:53;;;;;;;5.22;1.42;;;17.60;97.70;;;;;;5067627;28;20039;-82
2021/09/28 09:27:30;;;;;;;7.20;1.35;;;18.10;97.30;;;;;;5082909;28;20028;-81
2021/09/28 09:30:06;;;;;;;7.72;1.48;;;18.20;97.70;;;;;;5067506;28;20031;-82
2021/09/28 09:32:48;;;;;;;8.57;1.13;;;18.40;97.30;;;;;;5081473;28;20024;-81
2021/09/28 09:35:27;;;;;;;7.38;1.50;;;18.50;97.30;;;;;;5057399;28;20032;-82
2021/09/28 09:38:11;;;;;;;6.97;1.55;;;18.40;97.30;;;;;;5086777;28;20029;-81
2021/09/28 09:40:42;;;;;;;7.80;1.95;;;18.80;96.00;;;;;;5066761;28;20128;-82
2021/09/28 09:43:09;;;;;;;10.98;1.20;;;18.80;96.50;;;;;;5051389;28;20113;-82
2021/09/28 09:45:34;;;;;;;8.65;1.40;;;18.70;96.50;;;;;;5085554;28;20077;-82
2021/09/28 09:48:00;;;;;;;12.60;1.40;;;18.90;96.60;;;;;;5044059;28;20074;-81
2021/09/28 09:50:30;;;;;;;9.95;1.30;;;19.10;95.30;;;;;;5076629;28;20034;-82
2021/09/28 09:52:59;;;;;;;6.22;1.75;;;19.10;95.70;;;;;;5057199;28;20080;-82
2021/09/28 09:55:26;;;;;;;8.35;1.55;;;19.00;95.50;;;;;;5080396;28;20036;-81
2021/09/28 09:57:52;;;;;;;11.30;1.35;;;19.00;94.40;;;;;;5055731;28;20077;-82
2021/09/28 10:00:18;;;;;;;6.60;1.25;;;19.20;94.40;;;;;;5071194;28;20577;-83
2021/09/28 10:02:45;;;;;;;8.95;1.70;;;19.50;93.20;;;;;;5052698;28;20138;-82
2021/09/28 10:05:10;;;;;;;6.63;1.50;;;19.50;94.20;;;;;;5057009;28;20035;-82
2021/09/28 10:07:36;;;;;;;7.35;1.38;;;19.30;94.90;;;;;;5048257;28;20039;-82
2021/09/28 10:10:01;;;;;;;6.10;1.42;;;19.40;95.20;;;;;;5056809;28;20039;-81
2021/09/28 10:12:35;;;;;;;5.15;0.90;;;19.40;95.10;;;;;;5057873;28;20035;-82
2021/09/28 10:15:16;;;;;;;7.80;2.03;;;19.60;93.70;;;;;;5052528;28;20043;-81
2021/09/28 10:17:49;;;;;;;9.85;1.42;;;19.60;93.90;;;;;;5068331;28;20032;-82
2021/09/28 10:20:23;;;;;;;7.00;1.15;;;19.50;95.50;;;;;;5044913;28;20384;-82
2021/09/28 10:22:53;;;;;;;8.00;1.70;;;19.60;95.10;;;;;;5075276;28;20047;-83
2021/09/28 10:25:19;;;;;;;9.02;1.30;;;19.80;94.50;;;;;;5071674;28;20421;-82
2021/09/28 10:27:45;;;;;;;7.10;1.00;;;20.00;94.70;;;;;;5081340;28;20039;-82
2021/09/28 10:30:32;;;;;;;4.90;1.30;;;20.20;92.80;;;;;;5049951;28;20065;-82
2021/09/28 10:33:02;;;;;;;5.72;1.48;;;19.90;94.80;;;;;;5100216;28;20431;-82
2021/09/28 10:35:28;;;;;;;10.25;1.65;;;20.30;93.90;;;;;;5055872;28;20035;-83
2021/09/28 10:37:58;;;;;;;13.05;1.73;;;20.50;92.60;;;;;;5084782;28;20036;-82
2021/09/28 10:40:26;;;;;;;5.35;1.00;;;20.50;92.20;;;;;;5052267;28;20147;-83
2021/09/28 10:43:14;;;;;;;6.63;1.52;;;20.40;93.20;;;;;;5085022;28;20031;-82
2021/09/28 10:45:39;;;;;;;8.20;1.85;;;20.50;94.50;;;;;;5067597;28;20039;-82
2021/09/28 10:48:18;;;;;;;7.63;1.10;;;20.60;94.70;;;;;;5085533;28;20042;-83
2021/09/28 10:50:44;;;;;;;5.03;0.85;;;20.80;92.10;;;;;;5070891;28;20060;-83
2021/09/28 10:53:19;;;;;;;6.47;1.23;;;20.90;93.20;;;;;;5054787;28;20093;-82
2021/09/28 10:56:00;;;;;;;7.90;1.20;;;21.00;92.20;;;;;;5086816;28;20042;-82
2021/09/28 10:58:27;;;;;;;10.15;1.42;;;21.20;92.00;;;;;;5066954;28;20036;-83
2021/09/28 11:00:55;;;;;;;4.72;0.90;;;21.20;90.80;;;;;;5069402;28;20020;-82
2021/09/28 11:03:55;;;;;;;9.52;1.40;;;21.20;90.60;;;;;;5086787;28;20036;-82
2021/09/28 11:07:06;;;;;;;8.13;1.65;;;21.10;92.50;;;;;;5070686;28;20039;-82
2021/09/28 11:09:45;;;;;;;7.25;1.02;;;21.60;90.40;;;;;;5093755;28;20063;-83
2021/09/28 11:12:11;;;;;;;10.75;1.60;;;21.50;92.80;;;;;;5077846;28;20032;-82
2021/09/28 11:14:37;;;;;;;6.90;1.10;;;21.50;92.90;;;;;;5051505;28;20035;-82
2021/09/28 11:17:03;;;;;;;6.78;1.10;;;21.70;92.90;;;;;;5059704;28;20027;-83
2021/09/28 11:19:38;;;;;;;8.00;1.52;;;21.60;91.80;;;;;;5052364;28;20027;-83
2021/09/28 11:22:15;;;;;;;5.78;1.40;;;21.80;90.60;;;;;;5068361;28;20027;-83
2021/09/28 11:24:41;;;;;;;11.75;1.50;;;21.90;91.60;;;;;;5056325;28;20471;-83
2021/09/28 11:27:10;;;;;;;6.93;1.63;;;21.90;93.50;;;;;;5055240;28;20024;-83
2021/09/28 11:29:35;;;;;;;9.32;1.75;;;22.20;91.30;;;;;;5069458;28;20106;-83
2021/09/28 11:32:03;;;;;;;5.47;1.05;;;22.30;91.40;;;;;;5056813;28;20165;-84
2021/09/28 11:34:31;;;;;;;8.82;1.48;;;22.20;91.10;;;;;;5066971;28;20376;-83
2021/09/28 11:37:01;;;;;;;4.72;1.00;;;22.30;94.80;;;;;;5045823;28;20035;-83
2021/09/28 11:39:29;;;;;;;7.70;1.15;;;22.50;89.30;;;;;;5069397;28;20047;-84
2021/09/28 11:41:54;;;;;;;11.80;1.65;;;22.50;89.40;;;;;;5072871;28;20050;-84
2021/09/28 11:44:38;;;;;;;8.88;1.65;;;22.70;92.10;;;;;;5076044;28;20027;-84
2021/09/28 11:47:11;;;;;;;7.28;1.67;;;22.50;91.30;;;;;;5062003;28;20123;-84
2021/09/28 11:49:54;;;;;;;6.63;1.30;;;22.50;93.70;;;;;;5069751;28;20024;-84
2021/09/28 11:52:20;;;;;;;5.68;1.10;;;22.30;92.60;;;;;;5063913;28;20059;-84
2021/09/28 11:54:46;;;;;;;6.43;1.10;;;22.70;93.70;;;;;;5048239;28;20034;-84
2021/09/28 11:57:13;;;;;;;6.57;1.33;;;22.80;90.90;;;;;;5069935;28;20043;-84
2021/09/28 11:59:38;;;;;;;6.40;1.13;;;22.90;87.20;;;;;;5059174;28;20031;-85
2021/09/28 12:02:04;;;;;;;4.47;1.00;;;23.00;85.60;;;;;;5058912;28;20609;-85
2021/09/28 12:09:51;;;;;;;6.03;1.45;;;22.80;92.00;;;;;;5071109;28;20118;-85
2021/09/28 12:12:19;;;;;;;6.03;1.13;;;22.80;92.70;;;;;;5051776;28;20024;-85
2021/09/28 12:14:46;;;;;;;7.68;1.20;;;22.70;92.00;;;;;;5052176;28;20119;-85
2021/09/28 12:17:19;;;;;;;7.05;1.30;;;23.00;92.20;;;;;;5057033;28;20475;-85
2021/09/28 12:20:04;;;;;;;5.40;1.02;;;23.00;90.00;;;;;;5061158;28;20175;-85
2021/09/28 12:22:43;;;;;;;9.32;1.98;;;22.90;90.20;;;;;;5067713;28;20035;-85
2021/09/28 12:25:13;;;;;;;7.45;1.80;;;23.20;85.20;;;;;;5044462;28;20046;-85
2021/09/28 12:27:58;;;;;;;6.03;0.95;;;23.20;83.30;;;;;;5056727;28;20479;-85
2021/09/28 12:30:26;;;;;;;6.55;1.30;;;23.30;82.30;;;;;;5051456;28;20440;-85
2021/09/28 12:32:52;;;;;;;5.50;1.80;;;23.20;82.40;;;;;;5054814;28;20103;-85
2021/09/28 12:35:34;;;;;;;4.18;0.90;;;23.10;92.10;;;;;;5071796;28;20707;-85
2021/09/28 12:38:09;;;;;;;11.40;1.40;;;23.10;92.30;;;;;;5063325;28;20402;-85
2021/09/28 12:40:38;;;;;;;5.43;1.30;;;23.10;94.20;;;;;;5056983;28;20105;-84
2021/09/28 12:43:14;;;;;;;7.53;1.38;;;23.20;86.60;;;;;;5055879;28;20027;-85
2021/09/28 12:46:01;;;;;;;6.55;1.30;;;23.10;94.00;;;;;;5091558;27;20027;-83
2021/09/28 12:48:43;;;;;;;4.57;1.08;;;23.10;91.00;;;;;;5062424;28;20110;-82
2021/09/28 12:51:20;;;;;;;4.80;1.08;;;23.20;93.10;;;;;;5040133;28;20045;-85
2021/09/28 12:53:49;;;;;;;5.68;1.38;;;23.10;93.10;;;;;;5038834;28;20050;-85
2021/09/28 12:56:18;;;;;;;4.53;1.13;;;23.20;88.80;;;;;;5056481;28;20020;-84